ドバイ の空港の天気 - METARとTAF

ドバイ国際空港 ( OMDB / DXB ) - アラブ首長国連邦 ドバイ
飛行場実況気象(Metar)
観測時間06/23 05:00 GST (06/23 01:00 UTC)
風向・風速東北東 4m/s
視程10km以上
天気現象
なし
気温35℃
湿度50%
気圧999hPa
METAROMDB 230100Z 07007KT 010V110 CAVOK 35/23 Q0999 NOSIG
過去の天気等 Google飛行場航空写真 Wunderground天気予報

過去48時間のMETAR

飛行場予報(TAF)
発表時間: 6/23 02:53 GST (6/22 22:53 UTC)
予報対象時間: 23日4時 GST ~ 24日10時 GST
風向・風速南 3m/s
視程8,000m
なし
23日5時 GST から 確率 30% で
視程4,000m
天気現象煙霧
23日10時 GST ~ 23日12時 GST に徐々に
風向・風速西北西 6m/s
23日19時 GST ~ 23日21時 GST に徐々に
風向・風速南 3m/s
24日5時 GST から 確率 30% で
視程4,000m
天気現象煙霧
全天の8割程度の雲 雲底高度 240m
TAF OMDB 222253Z 2300/2406 18005KT 8000 NSC
PROB30 2301/2304 4000 HZ
BECMG 2306/2308 30012KT
BECMG 2315/2317 19005KT
PROB30 2401/2404 4000 HZ BKN008